Time;durP1;ratioP1;P1;durP2;ratioP2;P2;SDS_P1;SDS_P2;PMS_P1;PMS_P2;Temp;Humidity;BMP_temperature;BMP_pressure;BME280_temperature;BME280_humidity;BME280_pressure;Samples;Min_cycle;Max_cycle;Signal;HPM_P1;HPM_P2
2019/10/22 00:02:09;;;;;;;12.3;10.6;;;;;;;12.99;99.23145;966.4221;;;;
2019/10/22 00:04:34;;;;;;;11.2;10;;;;;;;12.93;99.54102;966.3635;;;;
2019/10/22 00:06:59;;;;;;;12.2;10.8;;;;;;;12.82;100;966.4167;;;;
2019/10/22 00:09:24;;;;;;;12.3;10.6;;;;;;;12.87;99.7041;966.4966;;;;
2019/10/22 00:11:49;;;;;;;12.2;10.9;;;;;;;12.79;100;966.4275;;;;
2019/10/22 00:14:15;;;;;;;13.7;11.2;;;;;;;12.83;99.71484;966.4267;;;;
2019/10/22 00:16:40;;;;;;;13.6;11.2;;;;;;;12.73;100;966.3854;;;;
2019/10/22 00:19:05;;;;;;;12.5;9.9;;;;;;;12.83;99.92285;966.4169;;;;
2019/10/22 00:21:30;;;;;;;13.3;11.9;;;;;;;12.79;100;966.4162;;;;
2019/10/22 00:23:55;;;;;;;11.4;10.2;;;;;;;12.84;99.43945;966.459;;;;
2019/10/22 00:26:20;;;;;;;12.3;10.5;;;;;;;12.76;99.74512;966.5055;;;;
2019/10/22 00:28:45;;;;;;;13.4;11;;;;;;;12.87;99.23926;966.5317;;;;
2019/10/22 00:31:11;;;;;;;11.6;10.4;;;;;;;12.9;98.66895;966.4808;;;;
2019/10/22 00:33:36;;;;;;;11.2;10;;;;;;;12.92;98.60156;966.4827;;;;
2019/10/22 00:36:02;;;;;;;11.2;10;;;;;;;12.74;99.46289;966.4224;;;;
2019/10/22 00:38:27;;;;;;;12;10.1;;;;;;;12.7;99.89453;966.433;;;;
2019/10/22 00:40:52;;;;;;;12.3;10.1;;;;;;;12.71;99.82715;966.4805;;;;
2019/10/22 00:43:17;;;;;;;12;10.8;;;;;;;12.69;99.74219;966.4141;;;;
2019/10/22 00:45:42;;;;;;;11.9;9.9;;;;;;;12.71;99.6416;966.3833;;;;
2019/10/22 00:48:07;;;;;;;11.3;10.1;;;;;;;12.75;99.43066;966.4055;;;;
2019/10/22 00:50:32;;;;;;;12.6;10.2;;;;;;;12.77;99.28613;966.5034;;;;
2019/10/22 00:52:58;;;;;;;12.4;10.3;;;;;;;12.72;99.58594;966.5178;;;;
2019/10/22 00:55:23;;;;;;;11.4;10.2;;;;;;;12.76;99.28223;966.5332;;;;
2019/10/22 00:57:48;;;;;;;11.4;9.9;;;;;;;12.72;99.55176;966.481;;;;
2019/10/22 01:00:14;;;;;;;10.9;9.2;;;;;;;12.7;99.61719;966.4255;;;;
2019/10/22 01:02:39;;;;;;;10.9;9.3;;;;;;;12.77;99.24902;966.3337;;;;
2019/10/22 01:05:04;;;;;;;11.1;10;;;;;;;12.69;99.37207;966.2709;;;;
2019/10/22 01:07:30;;;;;;;11;9.6;;;;;;;12.65;99.7666;966.2486;;;;
2019/10/22 01:09:55;;;;;;;12.1;10.9;;;;;;;12.61;100;966.2748;;;;
2019/10/22 01:12:20;;;;;;;12.1;10.1;;;;;;;12.52;100;966.3186;;;;
2019/10/22 01:14:46;;;;;;;11;9.9;;;;;;;12.52;100;966.3064;;;;
2019/10/22 01:17:11;;;;;;;11.8;10.2;;;;;;;12.55;100;966.3127;;;;
2019/10/22 01:19:36;;;;;;;10.9;9.8;;;;;;;12.62;99.74902;966.2626;;;;
2019/10/22 01:22:01;;;;;;;12.8;10.6;;;;;;;12.61;99.59668;966.2372;;;;
2019/10/22 01:24:26;;;;;;;10.8;9.7;;;;;;;12.63;99.56738;966.1691;;;;
2019/10/22 01:26:51;;;;;;;11.6;10.4;;;;;;;12.58;100;966.1948;;;;
2019/10/22 01:29:17;;;;;;;10.6;9.5;;;;;;;12.69;99.54492;966.1434;;;;
2019/10/22 01:31:42;;;;;;;11.5;9.9;;;;;;;12.83;98.44238;966.0962;;;;
2019/10/22 01:34:07;;;;;;;12.4;10;;;;;;;12.74;98.79199;966.0452;;;;
2019/10/22 01:36:32;;;;;;;11.1;10;;;;;;;12.64;99.16309;965.9182;;;;
2019/10/22 01:38:58;;;;;;;11.4;10.2;;;;;;;12.47;100;965.8359;;;;
2019/10/22 01:41:23;;;;;;;10.9;9.8;;;;;;;12.48;99.80859;965.8665;;;;
2019/10/22 01:43:48;;;;;;;12.1;10.1;;;;;;;12.61;99.53809;965.96;;;;
2019/10/22 01:46:13;;;;;;;11.3;9.9;;;;;;;12.64;99.24609;966.0016;;;;
2019/10/22 01:48:38;;;;;;;10.3;9.3;;;;;;;12.64;99.04688;966.0293;;;;
2019/10/22 01:51:04;;;;;;;10.7;9.6;;;;;;;12.68;98.84961;966.082;;;;
2019/10/22 01:53:29;;;;;;;11.8;9.9;;;;;;;12.68;98.80078;966.1397;;;;
2019/10/22 01:55:54;;;;;;;10.7;9.5;;;;;;;12.66;98.60059;966.1664;;;;
2019/10/22 01:58:20;;;;;;;11.1;9.9;;;;;;;12.57;98.91504;966.1121;;;;
2019/10/22 02:00:45;;;;;;;13.7;10.2;;;;;;;12.4;99.75488;966.0486;;;;
2019/10/22 02:03:10;;;;;;;13.1;9.4;;;;;;;12.51;99.00684;966.0463;;;;
2019/10/22 02:05:35;;;;;;;10.7;9.5;;;;;;;12.54;98.86328;966.0968;;;;
2019/10/22 02:08:00;;;;;;;10.3;9.3;;;;;;;12.52;99.08984;966.0563;;;;
2019/10/22 02:10:26;;;;;;;11;9.7;;;;;;;12.41;99.37598;965.9734;;;;
2019/10/22 02:12:51;;;;;;;12.6;9.6;;;;;;;12.35;99.72168;966.0122;;;;
2019/10/22 02:15:16;;;;;;;11.9;9.4;;;;;;;12.39;99.76465;966.1286;;;;
2019/10/22 02:17:41;;;;;;;9.7;8.8;;;;;;;12.48;99.16113;966.1755;;;;
2019/10/22 02:20:07;;;;;;;11.1;9.5;;;;;;;12.46;98.82129;966.2339;;;;
2019/10/22 02:22:32;;;;;;;10.3;8.7;;;;;;;12.49;98.31934;966.2173;;;;
2019/10/22 02:24:57;;;;;;;9.6;8.6;;;;;;;12.4;98.65918;966.2431;;;;
2019/10/22 02:27:22;;;;;;;12.1;9.9;;;;;;;12.35;98.79688;966.3187;;;;
2019/10/22 02:29:48;;;;;;;11.2;9.9;;;;;;;12.2;99.89453;966.3986;;;;
2019/10/22 02:32:13;;;;;;;10.9;9.8;;;;;;;12.17;100;966.4641;;;;
2019/10/22 02:34:38;;;;;;;10.1;9.1;;;;;;;12.2;99.79102;966.4247;;;;
2019/10/22 02:37:04;;;;;;;11.9;9.3;;;;;;;12.15;100;966.4107;;;;
2019/10/22 02:39:29;;;;;;;10.7;9.3;;;;;;;12.15;100;966.4369;;;;
2019/10/22 02:41:54;;;;;;;9.2;8.2;;;;;;;12.16;99.83789;966.5203;;;;
2019/10/22 02:44:19;;;;;;;9.4;8.4;;;;;;;12.17;99.86328;966.5237;;;;
2019/10/22 02:46:44;;;;;;;10.9;8.6;;;;;;;12.11;99.80469;966.5656;;;;
2019/10/22 02:49:09;;;;;;;9.6;8.3;;;;;;;12.19;99.19727;966.6894;;;;
2019/10/22 02:51:35;;;;;;;8.8;7.9;;;;;;;12.31;98.54395;966.738;;;;
2019/10/22 02:54:00;;;;;;;8.7;7.8;;;;;;;12.4;97.21191;966.745;;;;
2019/10/22 02:56:25;;;;;;;9.1;7.9;;;;;;;12.37;97.55273;966.7582;;;;
2019/10/22 02:58:51;;;;;;;9.3;7.4;;;;;;;12.28;97.78711;966.7586;;;;
2019/10/22 03:01:16;;;;;;;8.4;7.6;;;;;;;12.3;97.96484;966.7762;;;;
2019/10/22 03:03:41;;;;;;;8.7;7.2;;;;;;;12.3;97.66602;966.8172;;;;
2019/10/22 03:06:06;;;;;;;8.1;7.3;;;;;;;12.25;97.9873;966.8517;;;;
2019/10/22 03:08:31;;;;;;;9;8.1;;;;;;;12.22;98.14453;966.883;;;;
2019/10/22 03:10:57;;;;;;;8.9;8;;;;;;;12.22;98.1543;966.7701;;;;
2019/10/22 03:13:22;;;;;;;9.9;7.8;;;;;;;12.21;98.08496;966.9099;;;;
2019/10/22 03:15:47;;;;;;;8.7;7.8;;;;;;;12.35;97.12109;966.9309;;;;
2019/10/22 03:18:12;;;;;;;9.4;7.9;;;;;;;12.32;96.72266;966.9548;;;;
2019/10/22 03:20:37;;;;;;;9.2;8.2;;;;;;;12.19;97.61719;966.9647;;;;
2019/10/22 03:23:03;;;;;;;10;8.6;;;;;;;12.05;98.01172;966.9031;;;;
2019/10/22 03:25:28;;;;;;;9.3;8.3;;;;;;;12.12;97.87793;966.937;;;;
2019/10/22 03:27:53;;;;;;;9.5;7.9;;;;;;;12.06;98.07324;966.8929;;;;
2019/10/22 03:30:18;;;;;;;10.2;8.3;;;;;;;11.9;98.6123;966.8421;;;;
2019/10/22 03:32:43;;;;;;;9.7;7.8;;;;;;;11.94;98.41504;966.8597;;;;
2019/10/22 03:35:08;;;;;;;9.1;7.3;;;;;;;12.03;97.5;966.8621;;;;
2019/10/22 03:37:34;;;;;;;10.5;7.9;;;;;;;11.97;97.54492;966.7569;;;;
2019/10/22 03:39:59;;;;;;;11.9;8.4;;;;;;;11.81;98.28223;966.7775;;;;
2019/10/22 03:42:24;;;;;;;8.9;8;;;;;;;11.84;98.51953;966.8264;;;;
2019/10/22 03:44:50;;;;;;;9.3;7.7;;;;;;;11.81;98.88281;966.8004;;;;
2019/10/22 03:47:15;;;;;;;10.2;8;;;;;;;11.75;98.70898;966.7473;;;;
2019/10/22 03:49:40;;;;;;;9.2;8.3;;;;;;;11.72;98.74512;966.6983;;;;
2019/10/22 03:52:05;;;;;;;9.7;7.7;;;;;;;11.71;99.23926;966.6581;;;;
2019/10/22 03:54:30;;;;;;;8.5;7.3;;;;;;;11.76;98.45508;966.6309;;;;
2019/10/22 03:56:56;;;;;;;8.3;7.5;;;;;;;11.76;98.22363;966.6326;;;;
2019/10/22 03:59:21;;;;;;;10.8;7.9;;;;;;;11.65;98.6377;966.664;;;;
2019/10/22 04:02:28;;;;;;;8.3;7.2;;;;;;;11.56;99.23828;966.6061;;;;
2019/10/22 04:04:53;;;;;;;9.1;7.1;;;;;;;11.68;98.93262;966.5595;;;;
2019/10/22 04:07:18;;;;;;;9.8;7.4;;;;;;;11.67;98.71191;966.6018;;;;
2019/10/22 04:09:43;;;;;;;8.8;7.5;;;;;;;11.52;99.17285;966.588;;;;
2019/10/22 04:12:08;;;;;;;8.1;7.3;;;;;;;11.5;99.16895;966.5025;;;;
2019/10/22 04:14:33;;;;;;;8;7.2;;;;;;;11.5;99.48047;966.5204;;;;
2019/10/22 04:16:58;;;;;;;8.3;7.3;;;;;;;11.63;98.81836;966.4936;;;;
2019/10/22 04:19:23;;;;;;;8.7;7.4;;;;;;;11.57;98.67773;966.5541;;;;
2019/10/22 04:21:48;;;;;;;10.7;7.6;;;;;;;11.53;99.02441;966.5309;;;;
2019/10/22 04:24:13;;;;;;;10.1;7.8;;;;;;;11.57;99.03516;966.514;;;;
2019/10/22 04:26:38;;;;;;;8.5;7.6;;;;;;;11.54;99.06348;966.5647;;;;
2019/10/22 04:29:03;;;;;;;8.3;7;;;;;;;11.67;98.49219;966.5331;;;;
2019/10/22 04:31:28;;;;;;;8.3;7.4;;;;;;;11.61;98.57227;966.4819;;;;
2019/10/22 04:33:54;;;;;;;8.4;7.6;;;;;;;11.7;98.38281;966.4318;;;;
2019/10/22 04:36:19;;;;;;;7.9;7.1;;;;;;;11.52;98.70215;966.464;;;;
2019/10/22 04:38:44;;;;;;;8.9;7.7;;;;;;;11.39;99.33789;966.4765;;;;
2019/10/22 04:41:09;;;;;;;8.7;7.5;;;;;;;11.45;99.29492;966.4545;;;;
2019/10/22 04:43:34;;;;;;;8.7;7;;;;;;;11.43;98.95605;966.3717;;;;
2019/10/22 04:45:59;;;;;;;7.9;7.1;;;;;;;11.45;98.90234;966.4031;;;;
2019/10/22 04:48:24;;;;;;;8.6;7.2;;;;;;;11.41;99.24219;966.3671;;;;
2019/10/22 04:50:49;;;;;;;9;7.3;;;;;;;11.41;98.98828;966.385;;;;
2019/10/22 04:53:14;;;;;;;8.3;7.3;;;;;;;11.37;99.0127;966.3351;;;;
2019/10/22 04:55:39;;;;;;;8.8;7.4;;;;;;;11.34;99.18945;966.3122;;;;
2019/10/22 04:58:04;;;;;;;8.5;7.5;;;;;;;11.29;99.04102;966.4127;;;;
2019/10/22 05:00:30;;;;;;;9.3;7.6;;;;;;;11.29;99.29395;966.4128;;;;
2019/10/22 05:02:55;;;;;;;7.9;7.1;;;;;;;11.16;99.58594;966.4109;;;;
2019/10/22 05:05:20;;;;;;;9.6;7.7;;;;;;;11.11;99.91992;966.3694;;;;
2019/10/22 05:07:45;;;;;;;8.9;7.9;;;;;;;11.13;100;966.3473;;;;
2019/10/22 05:10:10;;;;;;;10.1;8.1;;;;;;;11.14;100;966.3816;;;;
2019/10/22 05:12:35;;;;;;;9.2;8.1;;;;;;;11.09;100;966.3631;;;;
2019/10/22 05:15:00;;;;;;;10.1;8.4;;;;;;;11.17;100;966.4045;;;;
2019/10/22 05:17:25;;;;;;;9.1;8.2;;;;;;;11.31;100;966.4313;;;;
2019/10/22 05:19:50;;;;;;;9.3;8.4;;;;;;;11.42;99.21973;966.4504;;;;
2019/10/22 05:22:15;;;;;;;12.3;9;;;;;;;11.45;98.91406;966.5017;;;;
2019/10/22 05:24:41;;;;;;;10.3;8.8;;;;;;;11.45;98.62598;966.4944;;;;
2019/10/22 05:27:06;;;;;;;11.6;9.1;;;;;;;11.39;98.72656;966.4797;;;;
2019/10/22 05:29:31;;;;;;;9.5;8.5;;;;;;;11.49;98.3916;966.5112;;;;
2019/10/22 05:31:56;;;;;;;11.3;8.7;;;;;;;11.39;98.56738;966.5287;;;;
2019/10/22 05:34:21;;;;;;;12;9;;;;;;;11.44;98.57813;966.5988;;;;
2019/10/22 05:36:46;;;;;;;11.8;8.4;;;;;;;11.52;97.83691;966.6763;;;;
2019/10/22 05:39:11;;;;;;;10.8;8.9;;;;;;;11.51;96.96973;966.6708;;;;
2019/10/22 05:41:36;;;;;;;11.1;8.6;;;;;;;11.46;97.0498;966.6639;;;;
2019/10/22 05:44:01;;;;;;;10.4;9.1;;;;;;;11.49;96.92676;966.5586;;;;
2019/10/22 05:46:26;;;;;;;10.3;8.8;;;;;;;11.34;97.5752;966.4902;;;;
2019/10/22 05:48:51;;;;;;;11.5;9;;;;;;;11.2;98.08496;966.5563;;;;
2019/10/22 05:51:16;;;;;;;11.2;9.3;;;;;;;11.03;98.79688;966.6233;;;;
2019/10/22 05:53:42;;;;;;;10.5;9.4;;;;;;;11.01;99.54004;966.5943;;;;
2019/10/22 05:56:07;;;;;;;12.1;9.7;;;;;;;11.13;99.18848;966.552;;;;
2019/10/22 05:58:32;;;;;;;12.2;9.2;;;;;;;11.22;98.69043;966.5309;;;;
2019/10/22 06:00:57;;;;;;;14.1;9.8;;;;;;;11.23;98.86523;966.5197;;;;
2019/10/22 06:03:22;;;;;;;13.4;9.5;;;;;;;11.01;99.75879;966.5478;;;;
2019/10/22 06:05:47;;;;;;;11.7;9.4;;;;;;;10.89;100;966.5681;;;;
2019/10/22 06:08:12;;;;;;;15.5;10.5;;;;;;;11.05;99.5957;966.5717;;;;
2019/10/22 06:10:37;;;;;;;13.8;9.5;;;;;;;11.14;99.45313;966.451;;;;
2019/10/22 06:13:02;;;;;;;11.5;9.3;;;;;;;11.12;99.05957;966.3599;;;;
2019/10/22 06:15:27;;;;;;;14.4;10.5;;;;;;;10.98;100;966.3725;;;;
2019/10/22 06:17:52;;;;;;;12.6;10.7;;;;;;;11;100;966.4495;;;;
2019/10/22 06:20:17;;;;;;;13.9;11;;;;;;;10.97;100;966.5072;;;;
2019/10/22 06:22:43;;;;;;;12.9;10.2;;;;;;;11.04;100;966.596;;;;
2019/10/22 06:25:15;;;;;;;13.2;11.3;;;;;;;10.98;100;966.6627;;;;
2019/10/22 06:27:40;;;;;;;16.9;10.4;;;;;;;11.11;99.9541;966.7366;;;;
2019/10/22 06:30:05;;;;;;;14.3;10.6;;;;;;;11.15;99.80273;966.7351;;;;
2019/10/22 06:32:30;;;;;;;12.2;10.1;;;;;;;11.22;99.62402;966.6916;;;;
2019/10/22 06:34:55;;;;;;;12;10.7;;;;;;;11.25;99.19434;966.7145;;;;
2019/10/22 06:37:20;;;;;;;12.3;11;;;;;;;11.28;99.47461;966.7054;;;;
2019/10/22 06:39:45;;;;;;;14.7;11.4;;;;;;;11.23;99.77539;966.7195;;;;
2019/10/22 06:42:10;;;;;;;16.2;12.5;;;;;;;11.17;100;966.7112;;;;
2019/10/22 06:44:36;;;;;;;16.8;12.3;;;;;;;11.24;100;966.8036;;;;
2019/10/22 06:47:01;;;;;;;16.2;11.9;;;;;;;11.36;99.75879;966.8739;;;;
2019/10/22 06:49:26;;;;;;;14.9;11.7;;;;;;;11.48;99.53125;966.8405;;;;
2019/10/22 06:51:51;;;;;;;14.6;11.6;;;;;;;11.62;98.44727;966.8217;;;;
2019/10/22 06:54:16;;;;;;;12.9;11.3;;;;;;;11.67;97.98438;966.8386;;;;
2019/10/22 06:56:41;;;;;;;13.3;11;;;;;;;11.67;97.4541;966.8842;;;;
2019/10/22 06:59:06;;;;;;;14.9;10.4;;;;;;;11.74;97.65234;966.8419;;;;
2019/10/22 07:01:31;;;;;;;15.2;10.6;;;;;;;11.7;96.96582;966.8222;;;;
2019/10/22 07:03:56;;;;;;;12.6;10.4;;;;;;;11.8;97.36621;966.8222;;;;
2019/10/22 07:06:21;;;;;;;12.1;10.8;;;;;;;11.81;96.72168;966.9317;;;;
2019/10/22 07:08:47;;;;;;;13.3;10.7;;;;;;;11.86;96.84961;966.9727;;;;
2019/10/22 07:11:12;;;;;;;12.2;10;;;;;;;12.02;95.47656;966.926;;;;
2019/10/22 07:13:37;;;;;;;15.5;10;;;;;;;12.15;95.36816;966.9973;;;;
2019/10/22 07:16:02;;;;;;;13.7;10.4;;;;;;;12.24;94.95996;967.0159;;;;
2019/10/22 07:18:27;;;;;;;11.7;10.1;;;;;;;12.24;94.96973;967.1033;;;;
2019/10/22 07:20:52;;;;;;;11.2;10;;;;;;;12.34;94.56348;967.1474;;;;
2019/10/22 07:23:17;;;;;;;14;10.5;;;;;;;12.36;93.76074;967.1602;;;;
2019/10/22 07:25:42;;;;;;;16.1;11.3;;;;;;;12.26;94.25879;967.174;;;;
2019/10/22 07:28:07;;;;;;;11.8;10.6;;;;;;;12.24;94.84473;967.1965;;;;
2019/10/22 07:30:33;;;;;;;12.4;11.1;;;;;;;12.22;94.63086;967.2899;;;;
2019/10/22 07:32:58;;;;;;;12;10.7;;;;;;;12.23;94.8291;967.2272;;;;
2019/10/22 07:35:23;;;;;;;13;10.1;;;;;;;12.26;94.07227;967.1772;;;;
2019/10/22 07:37:48;;;;;;;12.8;11.5;;;;;;;11.96;95.43066;967.075;;;;
2019/10/22 07:40:13;;;;;;;12.5;11.2;;;;;;;11.95;96.05957;967.0444;;;;
2019/10/22 07:42:38;;;;;;;12.2;10.6;;;;;;;12.07;95.87891;967.0189;;;;
2019/10/22 07:45:03;;;;;;;13.4;11.3;;;;;;;11.98;96.56543;967.0739;;;;
2019/10/22 07:47:29;;;;;;;13.7;11.5;;;;;;;11.91;96.31934;967.171;;;;
2019/10/22 07:49:54;;;;;;;15.2;10.9;;;;;;;11.92;96.42285;967.1859;;;;
2019/10/22 07:52:19;;;;;;;11.7;10.5;;;;;;;12.15;95.58691;967.1241;;;;
2019/10/22 07:54:44;;;;;;;12.2;10.9;;;;;;;12.13;95.66211;967.0915;;;;
2019/10/22 07:57:09;;;;;;;12.4;11.1;;;;;;;12.12;96.44531;967.1322;;;;
2019/10/22 07:59:35;;;;;;;14.8;13.3;;;;;;;12.1;95.45996;967.0941;;;;
2019/10/22 08:02:01;;;;;;;15.3;13.3;;;;;;;12.08;96.31055;966.9533;;;;
2019/10/22 08:04:26;;;;;;;19.5;13.9;;;;;;;12.13;95.65039;966.9592;;;;
2019/10/22 08:06:51;;;;;;;17.5;13.5;;;;;;;12.45;94.31152;966.8705;;;;
2019/10/22 08:09:16;;;;;;;17.7;14;;;;;;;12.64;93.41797;966.8315;;;;
2019/10/22 08:11:41;;;;;;;16.3;13;;;;;;;12.68;93.71387;967.0012;;;;
2019/10/22 08:14:06;;;;;;;15.9;13.4;;;;;;;12.67;94.37207;967.0449;;;;
2019/10/22 08:16:32;;;;;;;15.8;12.8;;;;;;;12.66;94.51758;967.0153;;;;
2019/10/22 08:18:57;;;;;;;12.8;11.5;;;;;;;12.91;93.35938;966.9881;;;;
2019/10/22 08:21:22;;;;;;;12.6;11.3;;;;;;;12.84;93.07617;966.8983;;;;
2019/10/22 08:23:47;;;;;;;12.3;11.1;;;;;;;12.92;92.8291;966.8453;;;;
2019/10/22 08:27:02;;;;;;;15.7;10.8;;;;;;;13.12;92.18848;966.9108;;;;
2019/10/22 08:28:37;;;;;;;13.1;10.5;;;;;;;13.04;92.62207;966.947;;;;
2019/10/22 08:31:02;;;;;;;12.5;10.5;;;;;;;13.03;92.63184;966.9932;;;;
2019/10/22 08:33:27;;;;;;;11.3;10.2;;;;;;;13.09;92.5166;966.9649;;;;
2019/10/22 08:35:52;;;;;;;10.6;9.6;;;;;;;13.01;93.9248;966.954;;;;
2019/10/22 08:38:17;;;;;;;11.4;10;;;;;;;12.99;93.05078;966.9653;;;;
2019/10/22 08:40:42;;;;;;;16;10.8;;;;;;;12.95;93.19336;966.97;;;;
2019/10/22 08:43:08;;;;;;;11.1;10;;;;;;;13.22;92.02344;966.972;;;;
2019/10/22 08:45:33;;;;;;;13.8;10.1;;;;;;;13.18;93.19531;966.921;;;;
2019/10/22 08:47:58;;;;;;;11.4;9.8;;;;;;;13.12;92.68555;966.8879;;;;
2019/10/22 08:50:23;;;;;;;12.2;9.3;;;;;;;13.18;92.03906;966.889;;;;
2019/10/22 08:52:48;;;;;;;11.9;9.4;;;;;;;13.25;92.0293;966.8943;;;;
2019/10/22 08:55:13;;;;;;;12.7;9.7;;;;;;;13.38;91.65234;966.9459;;;;
2019/10/22 08:57:38;;;;;;;12.7;9.6;;;;;;;13.44;91.87207;967.0175;;;;
2019/10/22 09:00:03;;;;;;;13;10;;;;;;;13.47;92.00781;967.0297;;;;
2019/10/22 09:02:28;;;;;;;13.9;10.3;;;;;;;13.58;91.92578;967.0505;;;;
2019/10/22 09:04:54;;;;;;;12.8;10.2;;;;;;;13.51;91.66699;967.1786;;;;
2019/10/22 09:07:19;;;;;;;16;10.8;;;;;;;13.44;91.06152;967.2084;;;;
2019/10/22 09:09:44;;;;;;;17.9;13.1;;;;;;;13.8;90.06934;967.1744;;;;
2019/10/22 09:12:10;;;;;;;15.8;10.9;;;;;;;13.78;89.92676;967.2001;;;;
2019/10/22 09:14:35;;;;;;;13.7;10.3;;;;;;;13.75;90;967.1636;;;;
2019/10/22 09:17:00;;;;;;;14.7;11.6;;;;;;;13.73;90.69434;967.2084;;;;
2019/10/22 09:19:25;;;;;;;14.2;11.1;;;;;;;13.86;90.40918;967.2173;;;;
2019/10/22 09:22:15;;;;;;;15.5;11.6;;;;;;;13.82;90.875;967.1905;;;;
2019/10/22 09:24:40;;;;;;;14.7;11.6;;;;;;;13.8;90.41699;967.2195;;;;
2019/10/22 09:27:05;;;;;;;14.4;11.5;;;;;;;13.92;90.91895;967.2234;;;;
2019/10/22 09:29:30;;;;;;;16.4;12.2;;;;;;;14.05;89.50879;967.2395;;;;
2019/10/22 09:32:50;;;;;;;17;12.6;;;;;;;13.99;90.42578;967.2688;;;;
2019/10/22 09:36:01;;;;;;;13.7;11.6;;;;;;;14.12;90.32422;967.2861;;;;
2019/10/22 09:38:27;;;;;;;12.6;11.2;;;;;;;14.21;89.52832;967.2947;;;;
2019/10/22 09:40:52;;;;;;;14.3;12.1;;;;;;;14.33;89.03125;967.3144;;;;
2019/10/22 09:43:17;;;;;;;15.4;12.8;;;;;;;14.07;89.75586;967.2695;;;;
2019/10/22 09:45:42;;;;;;;15.2;12.6;;;;;;;14.08;89.89648;967.3172;;;;
2019/10/22 09:48:07;;;;;;;14.7;11.5;;;;;;;14.3;88.95605;967.4024;;;;
2019/10/22 09:50:32;;;;;;;12.1;10.9;;;;;;;14.33;88.64844;967.4472;;;;
2019/10/22 09:52:57;;;;;;;11.3;10.2;;;;;;;14.27;89.14648;967.4052;;;;
2019/10/22 09:55:23;;;;;;;11.9;10;;;;;;;14.31;89.83984;967.3566;;;;
2019/10/22 09:57:48;;;;;;;12.6;10.7;;;;;;;14.33;89.25195;967.3881;;;;
2019/10/22 10:00:14;;;;;;;12.8;11.5;;;;;;;14.28;89.125;967.3773;;;;
2019/10/22 10:02:38;;;;;;;12.2;11;;;;;;;14.33;89.26367;967.2947;;;;
2019/10/22 10:05:03;;;;;;;14.6;12.3;;;;;;;14.22;89.75195;967.2435;;;;
2019/10/22 10:07:28;;;;;;;17.7;15.9;;;;;;;14.09;91.15137;967.2364;;;;
2019/10/22 10:09:53;;;;;;;19.1;17.3;;;;;;;14.09;91.5459;967.2118;;;;
2019/10/22 10:12:19;;;;;;;20.1;18.2;;;;;;;14.14;90.84766;967.2248;;;;
2019/10/22 10:14:44;;;;;;;19.1;17.2;;;;;;;14.1;91.74512;967.2528;;;;
2019/10/22 10:17:09;;;;;;;18.7;17;;;;;;;14.18;91.00781;967.2314;;;;
2019/10/22 10:19:35;;;;;;;18.6;16.7;;;;;;;14.08;91.67188;967.1942;;;;
2019/10/22 10:22:00;;;;;;;17.8;16.1;;;;;;;14.12;91.76074;967.1738;;;;
2019/10/22 10:24:25;;;;;;;14.9;13.5;;;;;;;14.31;90.49023;967.1392;;;;
2019/10/22 10:26:51;;;;;;;14.4;12.9;;;;;;;14.33;90.96973;967.1733;;;;
2019/10/22 10:29:16;;;;;;;15.1;13.2;;;;;;;14.45;90.10254;967.1097;;;;
2019/10/22 10:31:41;;;;;;;14.3;12.9;;;;;;;14.39;90.80859;967.1342;;;;
2019/10/22 10:34:06;;;;;;;14.8;12.7;;;;;;;14.52;90.41699;967.0963;;;;
2019/10/22 10:36:31;;;;;;;15.7;12.6;;;;;;;14.63;90.45117;967.057;;;;
2019/10/22 10:38:56;;;;;;;12.9;11.6;;;;;;;14.81;89.39551;967.1205;;;;
2019/10/22 10:41:22;;;;;;;15.7;12.4;;;;;;;14.81;89.57031;967.1566;;;;
2019/10/22 10:43:47;;;;;;;12.8;11.6;;;;;;;14.8;89.25391;967.1537;;;;
2019/10/22 10:46:12;;;;;;;13.6;12.2;;;;;;;14.9;89.56543;967.13;;;;
2019/10/22 10:48:37;;;;;;;12.5;11.3;;;;;;;15.17;89.38965;967.0901;;;;
2019/10/22 10:51:03;;;;;;;12.8;11.5;;;;;;;15.33;87.91992;967.1406;;;;
2019/10/22 10:53:28;;;;;;;12.2;11;;;;;;;15.28;87.46875;967.2286;;;;
2019/10/22 10:55:53;;;;;;;12.9;11;;;;;;;15.24;87.19141;967.1953;;;;
2019/10/22 10:58:18;;;;;;;13.2;11.9;;;;;;;15.39;86.4541;967.2112;;;;
2019/10/22 11:00:43;;;;;;;15;12.2;;;;;;;15.48;86.72754;967.1942;;;;
2019/10/22 11:03:09;;;;;;;12.6;11.3;;;;;;;15.46;87.55078;967.1331;;;;
2019/10/22 11:05:34;;;;;;;12.3;11.1;;;;;;;15.59;86.62305;967.1111;;;;
2019/10/22 11:07:59;;;;;;;18;12.5;;;;;;;15.6;86.49707;967.0839;;;;
2019/10/22 11:10:24;;;;;;;14.2;11.9;;;;;;;15.86;85.5791;967.1375;;;;
2019/10/22 11:12:49;;;;;;;12.9;11.1;;;;;;;15.8;85.35938;967.1861;;;;
2019/10/22 11:15:14;;;;;;;12.7;10.7;;;;;;;16.03;84.09766;967.1924;;;;
2019/10/22 11:17:40;;;;;;;11.4;10.1;;;;;;;16.13;84.16504;967.1049;;;;
2019/10/22 11:20:05;;;;;;;11.5;10.1;;;;;;;16.12;84.30273;967.0856;;;;
2019/10/22 11:22:30;;;;;;;12.5;11.2;;;;;;;16.07;84.10742;967.008;;;;
2019/10/22 11:24:56;;;;;;;14.5;11.9;;;;;;;15.97;84.06348;966.969;;;;
2019/10/22 11:27:21;;;;;;;12.4;10.9;;;;;;;16.08;84.41211;966.9767;;;;
2019/10/22 11:29:46;;;;;;;12.8;11.1;;;;;;;16.09;83.46973;966.875;;;;
2019/10/22 11:32:11;;;;;;;11.6;10.4;;;;;;;16.21;83.13086;966.8745;;;;
2019/10/22 11:34:37;;;;;;;15;13.5;;;;;;;16.14;83.25684;966.8547;;;;
2019/10/22 11:37:02;;;;;;;13.4;12;;;;;;;16.05;84.3125;966.7478;;;;
2019/10/22 11:39:27;;;;;;;14.9;11.6;;;;;;;15.98;84.98633;966.7424;;;;
2019/10/22 11:41:52;;;;;;;12.6;11.3;;;;;;;15.89;85.31836;966.767;;;;
2019/10/22 11:44:18;;;;;;;14.6;12.9;;;;;;;15.96;85.6582;966.7692;;;;
2019/10/22 11:46:43;;;;;;;13.3;11.7;;;;;;;16;84.80273;966.7202;;;;
2019/10/22 11:49:08;;;;;;;13.9;11.7;;;;;;;16.1;84.6377;966.6933;;;;
2019/10/22 11:51:33;;;;;;;13.9;12.5;;;;;;;16.11;85.00098;966.7311;;;;
2019/10/22 11:53:59;;;;;;;15.3;12.4;;;;;;;16.11;84.60449;966.7097;;;;
2019/10/22 11:56:24;;;;;;;13;11.6;;;;;;;16.19;84.07227;966.653;;;;
2019/10/22 11:58:49;;;;;;;12.9;11.5;;;;;;;16.32;83.81641;966.7321;;;;
2019/10/22 12:01:14;;;;;;;13.8;11.5;;;;;;;16.27;83.96875;966.7043;;;;
2019/10/22 12:03:39;;;;;;;12.1;10.9;;;;;;;16.37;84.15332;966.6619;;;;
2019/10/22 12:06:04;;;;;;;15.2;12.7;;;;;;;16.24;84.82715;966.628;;;;
2019/10/22 12:08:29;;;;;;;15.6;12.6;;;;;;;16.29;84.0791;966.6742;;;;
2019/10/22 12:10:55;;;;;;;14.7;12.6;;;;;;;16.4;83.52832;966.6555;;;;
2019/10/22 12:13:20;;;;;;;14.7;12.8;;;;;;;16.23;84.54492;966.6837;;;;
2019/10/22 12:15:45;;;;;;;13.3;11.9;;;;;;;16.32;83.96777;966.6145;;;;
2019/10/22 12:18:10;;;;;;;13.7;12.1;;;;;;;16.34;84.36719;966.6345;;;;
2019/10/22 12:20:35;;;;;;;13.8;12.4;;;;;;;16.44;84.1084;966.6853;;;;
2019/10/22 12:23:00;;;;;;;13.7;12.3;;;;;;;16.45;84.58691;966.707;;;;
2019/10/22 12:25:25;;;;;;;12.5;11.2;;;;;;;16.64;83.47949;966.6926;;;;
2019/10/22 12:27:50;;;;;;;13.5;11.5;;;;;;;16.5;84.06055;966.6833;;;;
2019/10/22 12:30:15;;;;;;;13;11.3;;;;;;;16.57;83.78027;966.5726;;;;
2019/10/22 12:32:40;;;;;;;14.9;12.6;;;;;;;16.55;84.02441;966.5595;;;;
2019/10/22 12:35:05;;;;;;;14.7;13.4;;;;;;;16.68;83.6416;966.5545;;;;
2019/10/22 12:37:30;;;;;;;18.5;16.6;;;;;;;16.78;83.63477;966.5563;;;;
2019/10/22 12:39:56;;;;;;;19.8;17.9;;;;;;;16.77;83.79688;966.5307;;;;
2019/10/22 12:42:21;;;;;;;19.9;18;;;;;;;16.6;84.84961;966.498;;;;
2019/10/22 12:44:46;;;;;;;20.8;18.8;;;;;;;16.65;84.37109;966.4242;;;;
2019/10/22 12:47:11;;;;;;;21.6;19.3;;;;;;;16.61;84.93262;966.397;;;;
2019/10/22 12:49:36;;;;;;;20.9;18.8;;;;;;;16.63;84.63477;966.3401;;;;
2019/10/22 12:52:01;;;;;;;20.7;18.6;;;;;;;16.76;83.66699;966.2452;;;;
2019/10/22 12:54:26;;;;;;;20.9;18.6;;;;;;;16.85;83.63477;966.244;;;;
2019/10/22 12:56:51;;;;;;;19.9;18;;;;;;;16.92;83.55762;966.2377;;;;
2019/10/22 12:59:16;;;;;;;19.5;17.6;;;;;;;17.01;82.47656;966.1319;;;;
2019/10/22 13:01:41;;;;;;;19.1;17.2;;;;;;;16.99;82.64844;966.127;;;;
2019/10/22 13:04:07;;;;;;;20.1;18.1;;;;;;;17.12;81.86719;966.0723;;;;
2019/10/22 13:06:32;;;;;;;19.4;17.5;;;;;;;17;81.70215;965.9993;;;;
2019/10/22 13:08:57;;;;;;;18.1;16.3;;;;;;;17.21;81.55664;966.1006;;;;
2019/10/22 13:11:23;;;;;;;21.7;17.6;;;;;;;17.02;83.15527;966.1403;;;;
2019/10/22 13:13:48;;;;;;;19.1;17.3;;;;;;;17.04;81.37305;966.1064;;;;
2019/10/22 13:16:13;;;;;;;19.5;17.4;;;;;;;16.8;80.7334;966.1877;;;;
2019/10/22 13:18:38;;;;;;;19.2;17.2;;;;;;;16.82;80.61816;966.0907;;;;
2019/10/22 13:21:03;;;;;;;19.8;16.7;;;;;;;16.92;80.49707;966.0227;;;;
2019/10/22 13:23:28;;;;;;;18.6;16.6;;;;;;;16.97;80.93945;966.0058;;;;
2019/10/22 13:25:53;;;;;;;18.6;16.8;;;;;;;16.98;80.76465;965.9752;;;;
2019/10/22 13:28:19;;;;;;;18.5;16.6;;;;;;;16.82;80.2793;965.9977;;;;
2019/10/22 13:30:44;;;;;;;17.9;16.1;;;;;;;16.79;80.92773;965.9406;;;;
2019/10/22 13:33:09;;;;;;;19.7;17.1;;;;;;;16.75;81.0498;965.9465;;;;
2019/10/22 13:35:35;;;;;;;20.2;16.9;;;;;;;16.6;81.65332;965.9852;;;;
2019/10/22 13:38:00;;;;;;;19.2;17.3;;;;;;;16.63;82.03223;966.0223;;;;
2019/10/22 13:40:25;;;;;;;18.2;16.3;;;;;;;16.72;81.39551;966.0751;;;;
2019/10/22 13:42:50;;;;;;;19.2;17.1;;;;;;;16.53;82.49023;966.063;;;;
2019/10/22 13:45:16;;;;;;;19;16.4;;;;;;;16.57;82.4873;965.9993;;;;
2019/10/22 13:47:41;;;;;;;19.3;17.2;;;;;;;16.53;83.26074;966.0087;;;;
2019/10/22 13:50:07;;;;;;;18.1;16.3;;;;;;;16.57;82.83691;965.9598;;;;
2019/10/22 13:52:32;;;;;;;17.5;15.6;;;;;;;16.6;82.92578;965.9436;;;;
2019/10/22 13:54:58;;;;;;;18;15.6;;;;;;;16.63;82.96582;965.9467;;;;
2019/10/22 13:57:23;;;;;;;18.9;16;;;;;;;16.58;83.23535;965.861;;;;
2019/10/22 13:59:48;;;;;;;20.3;16.6;;;;;;;16.5;83.9668;965.8349;;;;
2019/10/22 14:02:13;;;;;;;18.8;16.9;;;;;;;16.51;84.03906;965.8761;;;;
2019/10/22 14:04:38;;;;;;;16.4;14.7;;;;;;;16.58;83.92383;965.9327;;;;